sensor_id;sensor_type;location;lat;lon;timestamp;P1;durP1;ratioP1;P2;durP2;ratioP2
36651;SDS011;53334;51.976;20.144;2024-03-02T00:00:59;26.13;;;11.98;;
36651;SDS011;53334;51.976;20.144;2024-03-02T00:03:33;14.32;;;10.77;;
36651;SDS011;53334;51.976;20.144;2024-03-02T00:06:06;13.05;;;10.88;;
36651;SDS011;53334;51.976;20.144;2024-03-02T00:08:39;12.88;;;10.88;;
36651;SDS011;53334;51.976;20.144;2024-03-02T00:11:14;13.40;;;10.55;;
36651;SDS011;53334;51.976;20.144;2024-03-02T00:13:48;15.10;;;9.75;;
36651;SDS011;53334;51.976;20.144;2024-03-02T00:16:21;13.32;;;11.27;;
36651;SDS011;53334;51.976;20.144;2024-03-02T00:18:55;13.00;;;10.35;;
36651;SDS011;53334;51.976;20.144;2024-03-02T00:21:29;11.98;;;9.27;;
36651;SDS011;53334;51.976;20.144;2024-03-02T00:24:06;12.85;;;9.52;;
36651;SDS011;53334;51.976;20.144;2024-03-02T00:26:51;12.73;;;10.52;;
36651;SDS011;53334;51.976;20.144;2024-03-02T00:29:24;17.75;;;9.25;;
36651;SDS011;53334;51.976;20.144;2024-03-02T00:31:58;10.85;;;9.75;;
36651;SDS011;53334;51.976;20.144;2024-03-02T00:34:31;13.55;;;9.35;;
36651;SDS011;53334;51.976;20.144;2024-03-02T00:37:05;11.05;;;9.38;;
36651;SDS011;53334;51.976;20.144;2024-03-02T00:42:13;10.85;;;9.35;;
36651;SDS011;53334;51.976;20.144;2024-03-02T00:44:47;11.27;;;10.00;;
36651;SDS011;53334;51.976;20.144;2024-03-02T00:47:20;10.75;;;9.65;;
36651;SDS011;53334;51.976;20.144;2024-03-02T00:49:53;12.48;;;9.68;;
36651;SDS011;53334;51.976;20.144;2024-03-02T00:52:26;13.05;;;9.77;;
36651;SDS011;53334;51.976;20.144;2024-03-02T00:55:00;12.00;;;9.68;;
36651;SDS011;53334;51.976;20.144;2024-03-02T00:58:00;12.32;;;9.75;;
36651;SDS011;53334;51.976;20.144;2024-03-02T01:00:33;11.43;;;9.10;;
36651;SDS011;53334;51.976;20.144;2024-03-02T01:03:07;10.95;;;9.20;;
36651;SDS011;53334;51.976;20.144;2024-03-02T01:05:42;13.20;;;9.73;;
36651;SDS011;53334;51.976;20.144;2024-03-02T01:08:15;22.90;;;10.15;;
36651;SDS011;53334;51.976;20.144;2024-03-02T01:10:48;10.80;;;9.32;;
36651;SDS011;53334;51.976;20.144;2024-03-02T01:13:23;15.40;;;9.43;;
36651;SDS011;53334;51.976;20.144;2024-03-02T01:15:56;10.30;;;9.05;;
36651;SDS011;53334;51.976;20.144;2024-03-02T01:18:30;12.35;;;8.13;;
36651;SDS011;53334;51.976;20.144;2024-03-02T01:21:03;10.70;;;8.25;;
36651;SDS011;53334;51.976;20.144;2024-03-02T01:23:36;9.80;;;8.45;;
36651;SDS011;53334;51.976;20.144;2024-03-02T01:26:10;11.07;;;8.95;;
36651;SDS011;53334;51.976;20.144;2024-03-02T01:28:44;11.77;;;8.82;;
36651;SDS011;53334;51.976;20.144;2024-03-02T01:31:18;11.25;;;8.82;;
36651;SDS011;53334;51.976;20.144;2024-03-02T01:33:51;9.85;;;8.32;;
36651;SDS011;53334;51.976;20.144;2024-03-02T01:36:24;9.82;;;8.82;;
36651;SDS011;53334;51.976;20.144;2024-03-02T01:38:57;9.05;;;8.15;;
36651;SDS011;53334;51.976;20.144;2024-03-02T01:41:30;9.02;;;8.13;;
36651;SDS011;53334;51.976;20.144;2024-03-02T01:44:05;10.65;;;8.23;;
36651;SDS011;53334;51.976;20.144;2024-03-02T01:46:38;8.98;;;7.80;;
36651;SDS011;53334;51.976;20.144;2024-03-02T01:49:11;8.90;;;7.68;;
36651;SDS011;53334;51.976;20.144;2024-03-02T01:51:45;8.32;;;7.53;;
36651;SDS011;53334;51.976;20.144;2024-03-02T01:54:18;8.32;;;7.13;;
36651;SDS011;53334;51.976;20.144;2024-03-02T01:56:51;8.93;;;8.02;;
36651;SDS011;53334;51.976;20.144;2024-03-02T01:59:26;12.60;;;8.68;;
36651;SDS011;53334;51.976;20.144;2024-03-02T02:02:00;8.75;;;7.82;;
36651;SDS011;53334;51.976;20.144;2024-03-02T02:04:33;8.60;;;7.75;;
36651;SDS011;53334;51.976;20.144;2024-03-02T02:07:06;9.35;;;8.45;;
36651;SDS011;53334;51.976;20.144;2024-03-02T02:09:40;9.90;;;8.90;;
36651;SDS011;53334;51.976;20.144;2024-03-02T02:12:13;9.48;;;8.48;;
36651;SDS011;53334;51.976;20.144;2024-03-02T02:14:49;9.73;;;8.65;;
36651;SDS011;53334;51.976;20.144;2024-03-02T02:17:22;10.85;;;8.15;;
36651;SDS011;53334;51.976;20.144;2024-03-02T02:19:56;10.32;;;8.40;;
36651;SDS011;53334;51.976;20.144;2024-03-02T02:22:30;10.75;;;8.30;;
36651;SDS011;53334;51.976;20.144;2024-03-02T02:25:04;15.27;;;8.98;;
36651;SDS011;53334;51.976;20.144;2024-03-02T02:27:38;10.32;;;7.57;;
36651;SDS011;53334;51.976;20.144;2024-03-02T02:30:12;10.38;;;8.88;;
36651;SDS011;53334;51.976;20.144;2024-03-02T02:32:46;10.45;;;8.43;;
36651;SDS011;53334;51.976;20.144;2024-03-02T02:35:19;14.38;;;8.77;;
36651;SDS011;53334;51.976;20.144;2024-03-02T02:37:55;11.55;;;8.82;;
36651;SDS011;53334;51.976;20.144;2024-03-02T02:40:30;11.23;;;8.63;;
36651;SDS011;53334;51.976;20.144;2024-03-02T02:43:03;10.40;;;8.07;;
36651;SDS011;53334;51.976;20.144;2024-03-02T02:45:38;12.15;;;9.23;;
36651;SDS011;53334;51.976;20.144;2024-03-02T02:48:11;13.05;;;8.45;;
36651;SDS011;53334;51.976;20.144;2024-03-02T02:50:45;10.15;;;8.90;;
36651;SDS011;53334;51.976;20.144;2024-03-02T02:53:19;11.25;;;9.07;;
36651;SDS011;53334;51.976;20.144;2024-03-02T02:55:52;13.57;;;8.60;;
36651;SDS011;53334;51.976;20.144;2024-03-02T02:58:26;8.25;;;7.40;;
36651;SDS011;53334;51.976;20.144;2024-03-02T03:00:59;9.40;;;8.02;;
36651;SDS011;53334;51.976;20.144;2024-03-02T03:03:32;9.45;;;8.50;;
36651;SDS011;53334;51.976;20.144;2024-03-02T03:06:05;13.73;;;10.20;;
36651;SDS011;53334;51.976;20.144;2024-03-02T03:08:40;14.27;;;9.23;;
36651;SDS011;53334;51.976;20.144;2024-03-02T03:11:13;9.52;;;8.48;;
36651;SDS011;53334;51.976;20.144;2024-03-02T03:13:47;13.85;;;9.05;;
36651;SDS011;53334;51.976;20.144;2024-03-02T03:16:20;12.75;;;8.40;;
36651;SDS011;53334;51.976;20.144;2024-03-02T03:18:53;13.18;;;9.30;;
36651;SDS011;53334;51.976;20.144;2024-03-02T03:21:27;8.82;;;7.50;;
36651;SDS011;53334;51.976;20.144;2024-03-02T03:24:01;10.48;;;8.27;;
36651;SDS011;53334;51.976;20.144;2024-03-02T03:26:35;8.45;;;7.35;;
36651;SDS011;53334;51.976;20.144;2024-03-02T03:31:41;9.32;;;8.10;;
36651;SDS011;53334;51.976;20.144;2024-03-02T03:34:15;8.38;;;7.25;;
36651;SDS011;53334;51.976;20.144;2024-03-02T03:36:48;10.48;;;8.07;;
36651;SDS011;53334;51.976;20.144;2024-03-02T03:39:23;10.00;;;8.13;;
36651;SDS011;53334;51.976;20.144;2024-03-02T03:41:56;8.95;;;8.02;;
36651;SDS011;53334;51.976;20.144;2024-03-02T03:44:29;9.45;;;7.90;;
36651;SDS011;53334;51.976;20.144;2024-03-02T03:47:02;9.82;;;8.82;;
36651;SDS011;53334;51.976;20.144;2024-03-02T03:49:35;8.73;;;7.88;;
36651;SDS011;53334;51.976;20.144;2024-03-02T03:52:09;8.52;;;7.55;;
36651;SDS011;53334;51.976;20.144;2024-03-02T03:54:43;9.18;;;8.25;;
36651;SDS011;53334;51.976;20.144;2024-03-02T03:57:17;9.50;;;7.95;;
36651;SDS011;53334;51.976;20.144;2024-03-02T03:59:50;8.35;;;7.57;;
36651;SDS011;53334;51.976;20.144;2024-03-02T04:02:23;9.25;;;8.23;;
36651;SDS011;53334;51.976;20.144;2024-03-02T04:04:57;10.32;;;8.27;;
36651;SDS011;53334;51.976;20.144;2024-03-02T04:07:30;9.90;;;8.23;;
36651;SDS011;53334;51.976;20.144;2024-03-02T04:10:05;9.38;;;8.43;;
36651;SDS011;53334;51.976;20.144;2024-03-02T04:12:40;8.85;;;7.95;;
36651;SDS011;53334;51.976;20.144;2024-03-02T04:15:13;9.38;;;8.13;;
36651;SDS011;53334;51.976;20.144;2024-03-02T04:17:46;14.68;;;8.32;;
36651;SDS011;53334;51.976;20.144;2024-03-02T04:20:20;8.98;;;8.07;;
36651;SDS011;53334;51.976;20.144;2024-03-02T04:22:53;10.30;;;8.10;;
36651;SDS011;53334;51.976;20.144;2024-03-02T04:25:27;12.55;;;9.07;;
36651;SDS011;53334;51.976;20.144;2024-03-02T04:28:01;9.30;;;8.27;;
36651;SDS011;53334;51.976;20.144;2024-03-02T04:30:34;9.18;;;8.25;;
36651;SDS011;53334;51.976;20.144;2024-03-02T04:33:07;9.32;;;7.85;;
36651;SDS011;53334;51.976;20.144;2024-03-02T04:35:41;9.48;;;8.35;;
36651;SDS011;53334;51.976;20.144;2024-03-02T04:38:15;9.50;;;7.97;;
36651;SDS011;53334;51.976;20.144;2024-03-02T04:40:49;10.15;;;8.45;;
36651;SDS011;53334;51.976;20.144;2024-03-02T04:43:22;9.30;;;8.40;;
36651;SDS011;53334;51.976;20.144;2024-03-02T04:45:55;8.10;;;7.25;;
36651;SDS011;53334;51.976;20.144;2024-03-02T04:48:29;11.45;;;8.13;;
36651;SDS011;53334;51.976;20.144;2024-03-02T04:51:02;8.32;;;7.45;;
36651;SDS011;53334;51.976;20.144;2024-03-02T04:56:11;9.20;;;8.13;;
36651;SDS011;53334;51.976;20.144;2024-03-02T04:59:11;8.75;;;7.78;;
36651;SDS011;53334;51.976;20.144;2024-03-02T05:01:44;11.13;;;8.75;;
36651;SDS011;53334;51.976;20.144;2024-03-02T05:04:18;10.32;;;8.60;;
36651;SDS011;53334;51.976;20.144;2024-03-02T05:06:52;10.35;;;8.00;;
36651;SDS011;53334;51.976;20.144;2024-03-02T05:09:27;10.13;;;9.02;;
36651;SDS011;53334;51.976;20.144;2024-03-02T05:12:02;10.43;;;9.10;;
36651;SDS011;53334;51.976;20.144;2024-03-02T05:14:48;11.50;;;8.15;;
36651;SDS011;53334;51.976;20.144;2024-03-02T05:17:22;9.07;;;8.15;;
36651;SDS011;53334;51.976;20.144;2024-03-02T05:19:55;11.15;;;8.95;;
36651;SDS011;53334;51.976;20.144;2024-03-02T05:22:28;8.57;;;7.72;;
36651;SDS011;53334;51.976;20.144;2024-03-02T05:25:02;9.60;;;8.60;;
36651;SDS011;53334;51.976;20.144;2024-03-02T05:27:37;14.02;;;8.45;;
36651;SDS011;53334;51.976;20.144;2024-03-02T05:30:11;9.82;;;8.82;;
36651;SDS011;53334;51.976;20.144;2024-03-02T05:32:45;12.15;;;8.40;;
36651;SDS011;53334;51.976;20.144;2024-03-02T05:35:18;9.00;;;7.90;;
36651;SDS011;53334;51.976;20.144;2024-03-02T05:37:51;9.02;;;8.13;;
36651;SDS011;53334;51.976;20.144;2024-03-02T05:40:24;10.82;;;9.48;;
36651;SDS011;53334;51.976;20.144;2024-03-02T05:42:59;10.25;;;9.00;;
36651;SDS011;53334;51.976;20.144;2024-03-02T05:45:32;9.27;;;8.40;;
36651;SDS011;53334;51.976;20.144;2024-03-02T05:48:06;8.95;;;8.15;;
36651;SDS011;53334;51.976;20.144;2024-03-02T05:50:40;10.57;;;8.73;;
36651;SDS011;53334;51.976;20.144;2024-03-02T05:53:14;9.57;;;8.38;;
36651;SDS011;53334;51.976;20.144;2024-03-02T05:55:47;9.23;;;8.23;;
36651;SDS011;53334;51.976;20.144;2024-03-02T05:58:26;10.27;;;9.25;;
36651;SDS011;53334;51.976;20.144;2024-03-02T06:01:09;10.15;;;8.35;;
36651;SDS011;53334;51.976;20.144;2024-03-02T06:03:42;9.50;;;8.60;;
36651;SDS011;53334;51.976;20.144;2024-03-02T06:06:16;10.73;;;8.50;;
36651;SDS011;53334;51.976;20.144;2024-03-02T06:08:49;9.98;;;8.88;;
36651;SDS011;53334;51.976;20.144;2024-03-02T06:11:22;10.48;;;9.00;;
36651;SDS011;53334;51.976;20.144;2024-03-02T06:16:30;10.35;;;9.25;;
36651;SDS011;53334;51.976;20.144;2024-03-02T06:19:04;9.40;;;8.13;;
36651;SDS011;53334;51.976;20.144;2024-03-02T06:21:38;8.98;;;7.75;;
36651;SDS011;53334;51.976;20.144;2024-03-02T06:24:11;9.38;;;8.38;;
36651;SDS011;53334;51.976;20.144;2024-03-02T06:26:44;9.05;;;8.13;;
36651;SDS011;53334;51.976;20.144;2024-03-02T06:29:19;9.98;;;8.95;;
36651;SDS011;53334;51.976;20.144;2024-03-02T06:31:53;10.77;;;9.27;;
36651;SDS011;53334;51.976;20.144;2024-03-02T06:34:26;10.07;;;9.07;;
36651;SDS011;53334;51.976;20.144;2024-03-02T06:36:59;8.80;;;8.00;;
36651;SDS011;53334;51.976;20.144;2024-03-02T06:39:33;10.02;;;9.10;;
36651;SDS011;53334;51.976;20.144;2024-03-02T06:42:08;9.80;;;8.27;;
36651;SDS011;53334;51.976;20.144;2024-03-02T06:44:42;9.52;;;8.52;;
36651;SDS011;53334;51.976;20.144;2024-03-02T06:47:15;13.82;;;9.07;;
36651;SDS011;53334;51.976;20.144;2024-03-02T06:49:49;9.90;;;8.07;;
36651;SDS011;53334;51.976;20.144;2024-03-02T06:52:22;10.27;;;9.13;;
36651;SDS011;53334;51.976;20.144;2024-03-02T06:54:55;9.65;;;8.18;;
36651;SDS011;53334;51.976;20.144;2024-03-02T06:57:29;14.75;;;8.15;;
36651;SDS011;53334;51.976;20.144;2024-03-02T07:00:04;10.93;;;9.00;;
36651;SDS011;53334;51.976;20.144;2024-03-02T07:02:40;10.05;;;8.30;;
36651;SDS011;53334;51.976;20.144;2024-03-02T07:05:14;8.85;;;7.95;;
36651;SDS011;53334;51.976;20.144;2024-03-02T07:07:47;11.02;;;7.95;;
36651;SDS011;53334;51.976;20.144;2024-03-02T07:10:20;13.93;;;8.75;;
36651;SDS011;53334;51.976;20.144;2024-03-02T07:12:53;12.27;;;9.68;;
36651;SDS011;53334;51.976;20.144;2024-03-02T07:15:28;9.30;;;8.40;;
36651;SDS011;53334;51.976;20.144;2024-03-02T07:18:15;9.90;;;7.72;;
36651;SDS011;53334;51.976;20.144;2024-03-02T07:20:49;7.65;;;6.50;;
36651;SDS011;53334;51.976;20.144;2024-03-02T07:23:22;8.63;;;7.38;;
36651;SDS011;53334;51.976;20.144;2024-03-02T07:25:58;10.30;;;9.23;;
36651;SDS011;53334;51.976;20.144;2024-03-02T07:28:36;13.18;;;9.65;;
36651;SDS011;53334;51.976;20.144;2024-03-02T07:31:11;18.83;;;11.00;;
36651;SDS011;53334;51.976;20.144;2024-03-02T07:33:44;10.00;;;8.45;;
36651;SDS011;53334;51.976;20.144;2024-03-02T07:36:18;12.18;;;10.45;;
36651;SDS011;53334;51.976;20.144;2024-03-02T07:38:52;18.00;;;11.40;;
36651;SDS011;53334;51.976;20.144;2024-03-02T07:41:26;12.90;;;11.15;;
36651;SDS011;53334;51.976;20.144;2024-03-02T07:43:59;21.52;;;13.27;;
36651;SDS011;53334;51.976;20.144;2024-03-02T07:46:34;15.05;;;12.93;;
36651;SDS011;53334;51.976;20.144;2024-03-02T07:49:07;18.88;;;12.25;;
36651;SDS011;53334;51.976;20.144;2024-03-02T07:51:41;14.30;;;12.25;;
36651;SDS011;53334;51.976;20.144;2024-03-02T07:54:14;16.42;;;12.50;;
36651;SDS011;53334;51.976;20.144;2024-03-02T07:56:47;19.30;;;12.70;;
36651;SDS011;53334;51.976;20.144;2024-03-02T07:59:20;16.95;;;11.48;;
36651;SDS011;53334;51.976;20.144;2024-03-02T08:01:55;17.17;;;12.20;;
36651;SDS011;53334;51.976;20.144;2024-03-02T08:04:29;15.95;;;12.45;;
36651;SDS011;53334;51.976;20.144;2024-03-02T08:07:02;13.93;;;12.43;;
36651;SDS011;53334;51.976;20.144;2024-03-02T08:09:36;14.35;;;12.63;;
36651;SDS011;53334;51.976;20.144;2024-03-02T08:12:10;13.23;;;11.75;;
36651;SDS011;53334;51.976;20.144;2024-03-02T08:14:43;15.00;;;12.00;;
36651;SDS011;53334;51.976;20.144;2024-03-02T08:17:17;20.92;;;11.57;;
36651;SDS011;53334;51.976;20.144;2024-03-02T08:19:51;14.20;;;10.57;;
36651;SDS011;53334;51.976;20.144;2024-03-02T08:22:24;14.07;;;11.73;;
36651;SDS011;53334;51.976;20.144;2024-03-02T08:24:58;20.50;;;11.73;;
36651;SDS011;53334;51.976;20.144;2024-03-02T08:30:05;22.23;;;11.77;;
36651;SDS011;53334;51.976;20.144;2024-03-02T08:32:42;16.98;;;12.18;;
36651;SDS011;53334;51.976;20.144;2024-03-02T08:35:16;15.30;;;11.23;;
36651;SDS011;53334;51.976;20.144;2024-03-02T08:37:49;19.17;;;12.35;;
36651;SDS011;53334;51.976;20.144;2024-03-02T08:40:23;21.63;;;11.27;;
36651;SDS011;53334;51.976;20.144;2024-03-02T08:42:56;21.33;;;12.27;;
36651;SDS011;53334;51.976;20.144;2024-03-02T08:45:29;17.27;;;11.60;;
36651;SDS011;53334;51.976;20.144;2024-03-02T08:48:05;12.60;;;11.40;;
36651;SDS011;53334;51.976;20.144;2024-03-02T08:50:39;12.27;;;10.50;;
36651;SDS011;53334;51.976;20.144;2024-03-02T08:53:13;35.50;;;28.23;;
36651;SDS011;53334;51.976;20.144;2024-03-02T08:55:50;32.97;;;28.02;;
36651;SDS011;53334;51.976;20.144;2024-03-02T08:58:23;34.50;;;29.65;;
36651;SDS011;53334;51.976;20.144;2024-03-02T09:00:56;34.85;;;29.77;;
36651;SDS011;53334;51.976;20.144;2024-03-02T09:03:31;39.22;;;29.00;;
36651;SDS011;53334;51.976;20.144;2024-03-02T09:06:05;33.72;;;24.92;;
36651;SDS011;53334;51.976;20.144;2024-03-02T09:08:38;30.70;;;24.45;;
36651;SDS011;53334;51.976;20.144;2024-03-02T09:11:12;31.10;;;24.92;;
36651;SDS011;53334;51.976;20.144;2024-03-02T09:13:45;26.98;;;23.58;;
36651;SDS011;53334;51.976;20.144;2024-03-02T09:16:18;33.85;;;23.52;;
36651;SDS011;53334;51.976;20.144;2024-03-02T09:18:53;26.92;;;21.67;;
36651;SDS011;53334;51.976;20.144;2024-03-02T09:21:26;35.22;;;22.55;;
36651;SDS011;53334;51.976;20.144;2024-03-02T09:24:01;27.33;;;21.67;;
36651;SDS011;53334;51.976;20.144;2024-03-02T09:26:35;23.35;;;20.10;;
36651;SDS011;53334;51.976;20.144;2024-03-02T09:29:08;26.70;;;21.67;;
36651;SDS011;53334;51.976;20.144;2024-03-02T09:31:42;26.63;;;20.73;;
36651;SDS011;53334;51.976;20.144;2024-03-02T09:34:17;22.00;;;18.35;;
36651;SDS011;53334;51.976;20.144;2024-03-02T09:36:50;32.00;;;20.25;;
36651;SDS011;53334;51.976;20.144;2024-03-02T09:39:24;26.38;;;19.25;;
36651;SDS011;53334;51.976;20.144;2024-03-02T09:41:58;27.42;;;18.58;;
36651;SDS011;53334;51.976;20.144;2024-03-02T09:44:33;25.65;;;19.52;;
36651;SDS011;53334;51.976;20.144;2024-03-02T09:47:07;21.13;;;18.02;;
36651;SDS011;53334;51.976;20.144;2024-03-02T09:52:16;24.38;;;17.20;;
36651;SDS011;53334;51.976;20.144;2024-03-02T09:54:50;25.42;;;17.42;;
36651;SDS011;53334;51.976;20.144;2024-03-02T09:57:23;24.25;;;17.58;;
36651;SDS011;53334;51.976;20.144;2024-03-02T09:59:57;26.13;;;18.15;;
36651;SDS011;53334;51.976;20.144;2024-03-02T10:02:35;30.20;;;20.08;;
36651;SDS011;53334;51.976;20.144;2024-03-02T10:05:10;30.35;;;20.10;;
36651;SDS011;53334;51.976;20.144;2024-03-02T10:10:36;26.75;;;21.20;;
36651;SDS011;53334;51.976;20.144;2024-03-02T10:13:12;33.42;;;21.98;;
36651;SDS011;53334;51.976;20.144;2024-03-02T10:15:46;27.52;;;21.42;;
36651;SDS011;53334;51.976;20.144;2024-03-02T10:18:26;27.60;;;22.00;;
36651;SDS011;53334;51.976;20.144;2024-03-02T10:21:10;25.10;;;20.75;;
36651;SDS011;53334;51.976;20.144;2024-03-02T10:23:46;22.90;;;19.55;;
36651;SDS011;53334;51.976;20.144;2024-03-02T10:26:19;35.70;;;22.58;;
36651;SDS011;53334;51.976;20.144;2024-03-02T10:28:53;31.40;;;24.05;;
36651;SDS011;53334;51.976;20.144;2024-03-02T10:31:31;36.50;;;21.92;;
36651;SDS011;53334;51.976;20.144;2024-03-02T10:34:05;32.53;;;23.67;;
36651;SDS011;53334;51.976;20.144;2024-03-02T10:36:41;29.88;;;24.02;;
36651;SDS011;53334;51.976;20.144;2024-03-02T10:39:15;30.02;;;22.88;;
36651;SDS011;53334;51.976;20.144;2024-03-02T10:41:49;33.65;;;24.55;;
36651;SDS011;53334;51.976;20.144;2024-03-02T10:44:25;35.55;;;25.92;;
36651;SDS011;53334;51.976;20.144;2024-03-02T10:46:59;30.65;;;23.30;;
36651;SDS011;53334;51.976;20.144;2024-03-02T10:49:35;29.63;;;24.10;;
36651;SDS011;53334;51.976;20.144;2024-03-02T10:52:12;31.67;;;24.08;;
36651;SDS011;53334;51.976;20.144;2024-03-02T10:54:45;29.20;;;24.55;;
36651;SDS011;53334;51.976;20.144;2024-03-02T10:57:19;33.35;;;25.20;;
36651;SDS011;53334;51.976;20.144;2024-03-02T10:59:56;33.10;;;25.77;;
36651;SDS011;53334;51.976;20.144;2024-03-02T11:02:32;32.22;;;25.70;;
36651;SDS011;53334;51.976;20.144;2024-03-02T11:05:09;39.92;;;26.65;;
36651;SDS011;53334;51.976;20.144;2024-03-02T11:07:45;35.28;;;27.88;;
36651;SDS011;53334;51.976;20.144;2024-03-02T11:10:19;36.78;;;27.50;;
36651;SDS011;53334;51.976;20.144;2024-03-02T11:12:56;43.35;;;28.83;;
36651;SDS011;53334;51.976;20.144;2024-03-02T11:15:34;35.25;;;26.85;;
36651;SDS011;53334;51.976;20.144;2024-03-02T11:18:09;37.83;;;27.77;;
36651;SDS011;53334;51.976;20.144;2024-03-02T11:20:43;38.38;;;27.27;;
36651;SDS011;53334;51.976;20.144;2024-03-02T11:23:19;36.47;;;26.80;;
36651;SDS011;53334;51.976;20.144;2024-03-02T11:26:16;36.28;;;29.77;;
36651;SDS011;53334;51.976;20.144;2024-03-02T11:28:50;33.35;;;26.80;;
36651;SDS011;53334;51.976;20.144;2024-03-02T11:34:29;34.72;;;28.70;;
36651;SDS011;53334;51.976;20.144;2024-03-02T11:37:04;37.60;;;27.05;;
36651;SDS011;53334;51.976;20.144;2024-03-02T11:39:40;37.17;;;27.80;;
36651;SDS011;53334;51.976;20.144;2024-03-02T11:42:14;40.10;;;30.92;;
36651;SDS011;53334;51.976;20.144;2024-03-02T11:44:48;36.05;;;27.52;;
36651;SDS011;53334;51.976;20.144;2024-03-02T11:47:22;42.33;;;31.75;;
36651;SDS011;53334;51.976;20.144;2024-03-02T11:49:55;38.33;;;31.50;;
36651;SDS011;53334;51.976;20.144;2024-03-02T11:52:28;35.40;;;28.15;;
36651;SDS011;53334;51.976;20.144;2024-03-02T11:55:03;30.42;;;24.15;;
36651;SDS011;53334;51.976;20.144;2024-03-02T11:57:41;37.80;;;32.33;;
36651;SDS011;53334;51.976;20.144;2024-03-02T12:02:59;46.25;;;34.92;;
36651;SDS011;53334;51.976;20.144;2024-03-02T12:05:34;42.03;;;34.47;;
36651;SDS011;53334;51.976;20.144;2024-03-02T12:08:08;42.92;;;32.17;;
36651;SDS011;53334;51.976;20.144;2024-03-02T12:10:43;48.25;;;35.90;;
36651;SDS011;53334;51.976;20.144;2024-03-02T12:13:29;46.45;;;36.88;;
36651;SDS011;53334;51.976;20.144;2024-03-02T12:16:02;39.67;;;30.70;;
36651;SDS011;53334;51.976;20.144;2024-03-02T12:18:37;48.70;;;39.08;;
36651;SDS011;53334;51.976;20.144;2024-03-02T12:21:10;52.80;;;39.08;;
36651;SDS011;53334;51.976;20.144;2024-03-02T12:23:43;56.28;;;40.63;;
36651;SDS011;53334;51.976;20.144;2024-03-02T12:26:18;48.70;;;39.92;;
36651;SDS011;53334;51.976;20.144;2024-03-02T12:28:51;52.05;;;38.30;;
36651;SDS011;53334;51.976;20.144;2024-03-02T12:31:25;49.92;;;38.75;;
36651;SDS011;53334;51.976;20.144;2024-03-02T12:33:58;52.35;;;41.38;;
36651;SDS011;53334;51.976;20.144;2024-03-02T12:36:36;48.17;;;38.30;;
36651;SDS011;53334;51.976;20.144;2024-03-02T12:39:10;54.15;;;41.17;;
36651;SDS011;53334;51.976;20.144;2024-03-02T12:41:45;53.20;;;41.38;;
36651;SDS011;53334;51.976;20.144;2024-03-02T12:44:22;52.80;;;41.67;;
36651;SDS011;53334;51.976;20.144;2024-03-02T12:46:55;39.42;;;34.17;;
36651;SDS011;53334;51.976;20.144;2024-03-02T12:49:32;59.63;;;43.00;;
36651;SDS011;53334;51.976;20.144;2024-03-02T12:52:05;50.10;;;41.83;;
36651;SDS011;53334;51.976;20.144;2024-03-02T12:54:39;52.08;;;40.58;;
36651;SDS011;53334;51.976;20.144;2024-03-02T12:57:17;55.13;;;42.00;;
36651;SDS011;53334;51.976;20.144;2024-03-02T12:59:51;55.78;;;42.30;;
36651;SDS011;53334;51.976;20.144;2024-03-02T13:02:26;55.63;;;42.33;;
36651;SDS011;53334;51.976;20.144;2024-03-02T13:05:00;54.85;;;42.17;;
36651;SDS011;53334;51.976;20.144;2024-03-02T13:07:34;52.53;;;39.72;;
36651;SDS011;53334;51.976;20.144;2024-03-02T13:10:07;65.57;;;45.35;;
36651;SDS011;53334;51.976;20.144;2024-03-02T13:12:42;55.28;;;44.95;;
36651;SDS011;53334;51.976;20.144;2024-03-02T13:15:15;55.72;;;41.42;;
36651;SDS011;53334;51.976;20.144;2024-03-02T13:17:49;51.53;;;42.65;;
36651;SDS011;53334;51.976;20.144;2024-03-02T13:20:22;57.72;;;43.75;;
36651;SDS011;53334;51.976;20.144;2024-03-02T13:22:57;48.47;;;39.65;;
36651;SDS011;53334;51.976;20.144;2024-03-02T13:25:30;52.35;;;41.80;;
36651;SDS011;53334;51.976;20.144;2024-03-02T13:28:05;55.20;;;42.75;;
36651;SDS011;53334;51.976;20.144;2024-03-02T13:30:39;55.80;;;43.70;;
36651;SDS011;53334;51.976;20.144;2024-03-02T13:33:12;55.65;;;43.03;;
36651;SDS011;53334;51.976;20.144;2024-03-02T13:35:46;52.17;;;41.65;;
36651;SDS011;53334;51.976;20.144;2024-03-02T13:38:20;53.95;;;42.67;;
36651;SDS011;53334;51.976;20.144;2024-03-02T13:40:53;59.15;;;44.00;;
36651;SDS011;53334;51.976;20.144;2024-03-02T13:43:28;51.35;;;41.83;;
36651;SDS011;53334;51.976;20.144;2024-03-02T13:46:03;47.92;;;39.17;;
36651;SDS011;53334;51.976;20.144;2024-03-02T13:48:36;48.75;;;38.47;;
36651;SDS011;53334;51.976;20.144;2024-03-02T13:51:10;50.47;;;43.00;;
36651;SDS011;53334;51.976;20.144;2024-03-02T13:53:43;54.67;;;43.05;;
36651;SDS011;53334;51.976;20.144;2024-03-02T13:56:16;58.13;;;41.80;;
36651;SDS011;53334;51.976;20.144;2024-03-02T13:58:51;48.53;;;41.05;;
36651;SDS011;53334;51.976;20.144;2024-03-02T14:01:24;51.83;;;38.80;;
36651;SDS011;53334;51.976;20.144;2024-03-02T14:03:58;44.10;;;36.22;;
36651;SDS011;53334;51.976;20.144;2024-03-02T14:06:31;49.30;;;41.50;;
36651;SDS011;53334;51.976;20.144;2024-03-02T14:09:04;51.33;;;40.28;;
36651;SDS011;53334;51.976;20.144;2024-03-02T14:11:37;48.53;;;39.08;;
36651;SDS011;53334;51.976;20.144;2024-03-02T14:14:12;48.72;;;39.53;;
36651;SDS011;53334;51.976;20.144;2024-03-02T14:16:45;51.55;;;39.63;;
36651;SDS011;53334;51.976;20.144;2024-03-02T14:19:19;45.13;;;37.60;;
36651;SDS011;53334;51.976;20.144;2024-03-02T14:24:25;51.55;;;39.88;;
36651;SDS011;53334;51.976;20.144;2024-03-02T14:27:01;46.17;;;37.67;;
36651;SDS011;53334;51.976;20.144;2024-03-02T14:29:56;51.10;;;40.47;;
36651;SDS011;53334;51.976;20.144;2024-03-02T14:32:29;48.60;;;37.60;;
36651;SDS011;53334;51.976;20.144;2024-03-02T14:35:03;51.83;;;39.28;;
36651;SDS011;53334;51.976;20.144;2024-03-02T14:37:37;51.85;;;39.83;;
36651;SDS011;53334;51.976;20.144;2024-03-02T14:40:11;46.00;;;38.15;;
36651;SDS011;53334;51.976;20.144;2024-03-02T14:42:45;47.70;;;38.08;;
36651;SDS011;53334;51.976;20.144;2024-03-02T14:45:21;42.75;;;34.70;;
36651;SDS011;53334;51.976;20.144;2024-03-02T14:47:55;43.88;;;34.78;;
36651;SDS011;53334;51.976;20.144;2024-03-02T14:50:31;43.83;;;35.47;;
36651;SDS011;53334;51.976;20.144;2024-03-02T14:53:05;48.47;;;37.10;;
36651;SDS011;53334;51.976;20.144;2024-03-02T14:58:11;43.90;;;35.65;;
36651;SDS011;53334;51.976;20.144;2024-03-02T15:00:46;39.55;;;32.85;;
36651;SDS011;53334;51.976;20.144;2024-03-02T15:03:19;47.20;;;35.85;;
36651;SDS011;53334;51.976;20.144;2024-03-02T15:05:52;40.10;;;33.42;;
36651;SDS011;53334;51.976;20.144;2024-03-02T15:08:26;42.92;;;35.25;;
36651;SDS011;53334;51.976;20.144;2024-03-02T15:10:59;41.58;;;34.70;;
36651;SDS011;53334;51.976;20.144;2024-03-02T15:13:32;39.17;;;33.67;;
36651;SDS011;53334;51.976;20.144;2024-03-02T15:16:07;38.25;;;33.38;;
36651;SDS011;53334;51.976;20.144;2024-03-02T15:18:41;42.72;;;35.42;;
36651;SDS011;53334;51.976;20.144;2024-03-02T15:21:15;35.60;;;30.55;;
36651;SDS011;53334;51.976;20.144;2024-03-02T15:23:53;40.08;;;32.90;;
36651;SDS011;53334;51.976;20.144;2024-03-02T15:26:26;42.45;;;35.20;;
36651;SDS011;53334;51.976;20.144;2024-03-02T15:29:00;39.22;;;31.67;;